Time;durP1;ratioP1;P1;durP2;ratioP2;P2;SDS_P1;SDS_P2;PMS_P1;PMS_P2;Temp;Humidity;BMP_temperature;BMP_pressure;BME280_temperature;BME280_humidity;BME280_pressure;Samples;Min_cycle;Max_cycle;Signal;HPM_P1;HPM_P2
2023/07/21 00:00:21;;;;;;;;;;;;;;;22.30;49.44;100805.22;4965707;28;4097;-66
2023/07/21 00:02:51;;;;;;;;;;;;;;;22.30;49.27;100805.22;4964626;28;5789;-67
2023/07/21 00:05:17;;;;;;;;;;;;;;;22.30;49.42;100805.22;4964794;28;4211;-66
2023/07/21 00:07:44;;;;;;;;;;;;;;;22.30;49.09;100805.22;4964536;28;4148;-66
2023/07/21 00:10:10;;;;;;;;;;;;;;;22.29;49.25;100800.16;4964719;28;4207;-66
2023/07/21 00:12:37;;;;;;;;;;;;;;;22.30;49.38;100804.50;4968081;28;3975;-66
2023/07/21 00:15:04;;;;;;;;;;;;;;;22.28;49.43;100799.38;4965385;28;4207;-67
2023/07/21 00:17:31;;;;;;;;;;;;;;;22.29;49.41;100791.50;4965368;28;4160;-66
2023/07/21 00:20:03;;;;;;;;;;;;;;;22.28;49.43;100793.63;4968127;28;4214;-66
2023/07/21 00:22:31;;;;;;;;;;;;;;;22.29;49.43;100797.25;4965685;28;4230;-66
2023/07/21 00:25:00;;;;;;;;;;;;;;;22.28;49.32;100784.22;4966905;28;4233;-66
2023/07/21 00:27:27;;;;;;;;;;;;;;;22.27;49.40;100789.25;4968042;28;4222;-66
2023/07/21 00:29:53;;;;;;;;;;;;;;;22.27;49.19;100783.50;4968019;28;4195;-66
2023/07/21 00:32:20;;;;;;;;;;;;;;;22.28;49.16;100778.47;4968715;28;4150;-66
2023/07/21 00:34:47;;;;;;;;;;;;;;;22.26;49.47;100781.25;4969757;28;4241;-66
2023/07/21 00:37:15;;;;;;;;;;;;;;;22.26;49.48;100775.50;4971156;28;4271;-67
2023/07/21 00:39:44;;;;;;;;;;;;;;;22.25;49.46;100774.75;4970461;28;3968;-66
2023/07/21 00:42:11;;;;;;;;;;;;;;;22.26;49.21;100778.38;4968100;28;4012;-66
2023/07/21 00:44:37;;;;;;;;;;;;;;;22.26;49.37;100781.25;4983596;28;4591;-66
2023/07/21 00:47:04;;;;;;;;;;;;;;;22.25;49.44;100774.75;4969953;28;4125;-66
2023/07/21 00:49:32;;;;;;;;;;;;;;;22.25;49.46;100774.03;4973691;28;4116;-66
2023/07/21 00:51:58;;;;;;;;;;;;;;;22.26;49.34;100772.63;4969246;28;4072;-67
2023/07/21 00:54:25;;;;;;;;;;;;;;;22.24;49.42;100773.28;4950708;28;4190;-66
2023/07/21 00:56:52;;;;;;;;;;;;;;;22.24;49.23;100769.66;4980305;28;4008;-66
2023/07/21 00:59:19;;;;;;;;;;;;;;;22.24;49.46;100772.53;4972510;28;4289;-66
2023/07/21 01:01:45;;;;;;;;;;;;;;;22.23;49.25;100768.91;4966792;28;4233;-66
2023/07/21 01:04:11;;;;;;;;;;;;;;;22.24;49.30;100766.75;4967247;28;4216;-67
2023/07/21 01:06:38;;;;;;;;;;;;;;;22.23;49.45;100776.84;4985773;28;4107;-66
2023/07/21 01:09:06;;;;;;;;;;;;;;;22.23;49.42;100773.94;4968342;28;4125;-66
2023/07/21 01:11:33;;;;;;;;;;;;;;;22.21;49.50;100765.94;4969814;28;4152;-66
2023/07/21 01:14:00;;;;;;;;;;;;;;;22.21;49.50;100768.84;4984900;28;3951;-66
2023/07/21 01:16:26;;;;;;;;;;;;;;;22.21;49.70;100770.97;4981154;28;5086;-66
2023/07/21 01:18:53;;;;;;;;;;;;;;;22.21;49.33;100762.31;4971896;28;4213;-66
2023/07/21 01:21:40;;;;;;;;;;;;;;;22.21;49.29;100770.97;4981665;28;4899;-66
2023/07/21 01:24:09;;;;;;;;;;;;;;;22.21;49.48;100773.84;4967512;28;4183;-66
2023/07/21 01:26:36;;;;;;;;;;;;;;;22.21;49.41;100768.06;4964103;28;4590;-66
2023/07/21 01:29:04;;;;;;;;;;;;;;;22.18;49.27;100765.13;4963609;28;4084;-67
2023/07/21 01:31:30;;;;;;;;;;;;;;;22.20;49.56;100769.50;4965564;28;4264;-66
2023/07/21 01:33:57;;;;;;;;;;;;;;;22.20;49.15;100775.25;4982629;28;4227;-67
2023/07/21 01:36:24;;;;;;;;;;;;;;;22.18;49.46;100765.13;4983551;28;4141;-66
2023/07/21 01:38:50;;;;;;;;;;;;;;;22.18;49.46;100765.13;4968741;28;4060;-66
2023/07/21 01:41:17;;;;;;;;;;;;;;;22.17;49.32;100757.88;4963814;28;4509;-66
2023/07/21 01:43:44;;;;;;;;;;;;;;;22.17;49.40;100763.66;4981951;28;6329;-66
2023/07/21 01:46:11;;;;;;;;;;;;;;;22.17;49.58;100763.66;4963822;28;4310;-66
2023/07/21 01:48:37;;;;;;;;;;;;;;;22.16;49.55;100765.03;4969332;28;5085;-66
2023/07/21 01:51:04;;;;;;;;;;;;;;;22.16;49.23;100762.16;4967680;28;4081;-66
2023/07/21 01:53:31;;;;;;;;;;;;;;;22.15;49.63;100766.44;4966706;28;4629;-66
2023/07/21 01:56:16;;;;;;;;;;;;;;;22.17;49.32;100769.41;4973735;28;3951;-66
2023/07/21 01:58:43;;;;;;;;;;;;;;;22.16;49.33;100770.81;4966070;28;4157;-66
2023/07/21 02:01:09;;;;;;;;;;;;;;;22.15;49.46;100775.09;4975174;28;4432;-67
2023/07/21 02:03:36;;;;;;;;;;;;;;;22.15;49.21;100778.00;4964152;28;4332;-66
2023/07/21 02:06:12;;;;;;;;;;;;;;;22.15;49.58;100772.22;4963779;28;4930;-66
2023/07/21 02:08:39;;;;;;;;;;;;;;;22.16;49.41;100761.41;4962063;28;4165;-66
2023/07/21 02:11:05;;;;;;;;;;;;;;;22.16;49.19;100761.41;4967684;28;4773;-66
2023/07/21 02:13:42;;;;;;;;;;;;;;;22.15;49.56;100763.56;4961491;28;4117;-67
2023/07/21 02:16:09;;;;;;;;;;;;;;;22.14;49.41;100779.38;4975036;28;4093;-66
2023/07/21 02:18:37;;;;;;;;;;;;;;;22.14;49.47;100772.88;4981317;28;4160;-66
2023/07/21 02:21:04;;;;;;;;;;;;;;;22.13;49.47;100769.25;4966113;28;4163;-66
2023/07/21 02:23:31;;;;;;;;;;;;;;;22.13;49.16;100780.78;4977953;28;4417;-81
2023/07/21 02:25:58;;;;;;;;;;;;;;;22.14;49.47;100782.25;4980245;28;4223;-71
2023/07/21 02:28:24;;;;;;;;;;;;;;;22.12;49.44;100770.66;4962105;28;5085;-73
2023/07/21 02:31:03;;;;;;;;;;;;;;;22.12;49.21;100773.53;4980748;28;3993;-73
2023/07/21 02:33:30;;;;;;;;;;;;;;;22.11;49.43;100780.72;4979285;28;4182;-73
2023/07/21 02:35:57;;;;;;;;;;;;;;;22.11;49.40;100766.28;4982714;28;4357;-73
2023/07/21 02:38:23;;;;;;;;;;;;;;;22.11;49.33;100757.63;4972660;28;3926;-73
2023/07/21 02:40:50;;;;;;;;;;;;;;;22.11;49.22;100760.53;4965779;28;4235;-73
2023/07/21 02:43:17;;;;;;;;;;;;;;;22.11;49.29;100751.13;4981300;28;4919;-74
2023/07/21 02:45:51;;;;;;;;;;;;;;;22.10;49.31;100756.16;4967326;28;4364;-74
2023/07/21 02:48:18;;;;;;;;;;;;;;;22.10;49.42;100735.22;4968613;28;4049;-73
2023/07/21 02:50:46;;;;;;;;;;;;;;;22.10;49.51;100747.50;4970110;28;4203;-73
2023/07/21 02:53:13;;;;;;;;;;;;;;;22.10;49.43;100747.50;4963102;28;4041;-74
2023/07/21 02:55:40;;;;;;;;;;;;;;;22.09;49.33;100746.03;4981396;28;4152;-73
2023/07/21 02:58:07;;;;;;;;;;;;;;;22.09;49.39;100753.94;4963410;28;4895;-74
2023/07/21 03:00:35;;;;;;;;;;;;;;;22.10;49.31;100750.38;4948711;28;4778;-74
2023/07/21 03:03:14;;;;;;;;;;;;;;;22.08;49.07;100756.09;4963972;28;4196;-74
2023/07/21 03:05:44;;;;;;;;;;;;;;;22.08;49.26;100749.56;4963922;28;4161;-73
2023/07/21 03:08:10;;;;;;;;;;;;;;;22.08;49.40;100756.09;4980950;28;4196;-74
2023/07/21 03:10:37;;;;;;;;;;;;;;;22.08;49.48;100750.31;4965415;28;4326;-73
2023/07/21 03:13:04;;;;;;;;;;;;;;;22.08;49.42;100746.69;4981282;28;4327;-73
2023/07/21 03:15:32;;;;;;;;;;;;;;;22.07;49.22;100751.72;4964276;28;5146;-73
2023/07/21 03:18:05;;;;;;;;;;;;;;;22.07;49.38;100759.63;4978604;28;4277;-73
2023/07/21 03:20:40;;;;;;;;;;;;;;;22.06;49.34;100756.00;4983833;28;3997;-73
2023/07/21 03:23:08;;;;;;;;;;;;;;;22.06;49.23;100753.13;4971411;28;4188;-73
2023/07/21 03:25:37;;;;;;;;;;;;;;;22.06;49.44;100756.00;4975091;28;4156;-73
2023/07/21 03:28:04;;;;;;;;;;;;;;;22.07;49.21;100750.97;4979694;28;3975;-74
2023/07/21 03:30:39;;;;;;;;;;;;;;;22.05;49.17;100757.41;4966102;28;6299;-74
2023/07/21 03:33:16;;;;;;;;;;;;;;;22.05;49.50;100756.66;4964339;28;4124;-74
2023/07/21 03:35:47;;;;;;;;;;;;;;;22.05;49.18;100748.75;4965416;28;4256;-74
2023/07/21 03:38:14;;;;;;;;;;;;;;;22.04;49.20;100750.16;4965015;28;4132;-74
2023/07/21 03:40:40;;;;;;;;;;;;;;;22.05;49.35;100750.91;4966848;28;4071;-73
2023/07/21 03:43:07;;;;;;;;;;;;;;;22.04;49.18;100744.41;4968302;28;4057;-73
2023/07/21 03:45:34;;;;;;;;;;;;;;;22.04;49.34;100737.91;4966833;28;4279;-73
2023/07/21 03:48:01;;;;;;;;;;;;;;;22.02;49.20;100735.66;4971162;28;4241;-73
2023/07/21 03:50:28;;;;;;;;;;;;;;;22.02;49.25;100735.66;4961403;28;4135;-73
2023/07/21 03:52:55;;;;;;;;;;;;;;;22.03;49.39;100742.91;4966441;28;4110;-73
2023/07/21 03:55:23;;;;;;;;;;;;;;;22.03;49.09;100722.72;4995894;28;4111;-73
2023/07/21 03:57:49;;;;;;;;;;;;;;;22.03;49.04;100728.50;4964796;28;4724;-73
2023/07/21 04:00:16;;;;;;;;;;;;;;;22.02;49.26;100735.66;4964005;28;4002;-73
2023/07/21 04:02:42;;;;;;;;;;;;;;;22.03;49.48;100736.41;4965917;28;4063;-74
2023/07/21 04:05:08;;;;;;;;;;;;;;;22.02;49.21;100735.66;4968322;28;4168;-73
2023/07/21 04:07:35;;;;;;;;;;;;;;;22.02;49.37;100729.91;4977486;28;4092;-74
2023/07/21 04:10:03;;;;;;;;;;;;;;;22.02;49.15;100735.66;4983512;28;4254;-74
2023/07/21 04:12:29;;;;;;;;;;;;;;;22.01;49.50;100722.66;4974948;28;4133;-74
2023/07/21 04:14:55;;;;;;;;;;;;;;;22.00;49.46;100732.72;4968308;28;4178;-73
2023/07/21 04:17:23;;;;;;;;;;;;;;;22.00;49.36;100718.28;4971285;28;4316;-73
2023/07/21 04:19:49;;;;;;;;;;;;;;;21.99;49.54;100716.81;4971750;28;4112;-73
2023/07/21 04:22:16;;;;;;;;;;;;;;;22.00;49.33;100720.44;4971687;28;4168;-73
2023/07/21 04:24:42;;;;;;;;;;;;;;;22.00;49.51;100714.69;4969731;28;4269;-73
2023/07/21 04:27:09;;;;;;;;;;;;;;;21.99;49.29;100719.72;4984672;28;3948;-74
2023/07/21 04:29:36;;;;;;;;;;;;;;;22.00;49.33;100714.69;4984421;28;4141;-73
2023/07/21 04:32:03;;;;;;;;;;;;;;;21.98;49.52;100709.56;4981845;28;4273;-74
2023/07/21 04:34:30;;;;;;;;;;;;;;;22.00;49.29;100712.53;4973402;28;5047;-73
2023/07/21 04:36:58;;;;;;;;;;;;;;;22.00;49.56;100715.41;4987853;28;3941;-73
2023/07/21 04:39:33;;;;;;;;;;;;;;;21.99;49.64;100711.06;4983689;28;4176;-73
2023/07/21 04:42:00;;;;;;;;;;;;;;;21.99;49.28;100707.41;4965814;28;4140;-74
2023/07/21 04:44:26;;;;;;;;;;;;;;;21.99;49.58;100721.84;4975522;28;4129;-73
2023/07/21 04:46:53;;;;;;;;;;;;;;;21.99;49.39;100711.06;4979825;28;4169;-72
2023/07/21 04:49:23;;;;;;;;;;;;;;;21.99;49.39;100713.19;4974304;28;4182;-72
2023/07/21 04:51:51;;;;;;;;;;;;;;;21.98;49.67;100718.22;4975001;28;4236;-73
2023/07/21 04:54:17;;;;;;;;;;;;;;;21.97;49.69;100708.09;4967740;28;3920;-74
2023/07/21 04:56:44;;;;;;;;;;;;;;;21.99;49.48;100713.19;4984042;28;4332;-74
2023/07/21 04:59:12;;;;;;;;;;;;;;;21.97;49.58;100713.88;4968074;28;4143;-74
2023/07/21 05:01:39;;;;;;;;;;;;;;;21.97;49.54;100708.09;4981557;28;4259;-73
2023/07/21 05:04:05;;;;;;;;;;;;;;;21.97;49.82;100705.22;4965054;28;4328;-72
2023/07/21 05:06:33;;;;;;;;;;;;;;;21.97;49.61;100716.75;4978155;28;4140;-74
2023/07/21 05:08:59;;;;;;;;;;;;;;;21.93;49.77;100714.44;4965520;28;4043;-75
2023/07/21 05:11:26;;;;;;;;;;;;;;;20.76;53.49;100719.84;4970062;28;4305;-67
2023/07/21 05:13:53;;;;;;;;;;;;;;;20.22;55.54;100711.00;4984176;28;3922;-69
2023/07/21 05:16:35;;;;;;;;;;;;;;;20.00;57.02;100719.38;4964473;28;4211;-73
2023/07/21 05:19:20;;;;;;;;;;;;;;;20.00;57.58;100708.63;4965681;28;4128;-74
2023/07/21 05:22:05;;;;;;;;;;;;;;;19.83;58.32;100715.72;4961829;28;4127;-75
2023/07/21 05:24:47;;;;;;;;;;;;;;;19.86;58.36;100719.47;4982402;28;4369;-74
2023/07/21 05:27:17;;;;;;;;;;;;;;;19.68;59.85;100707.84;4962943;28;4290;-74
2023/07/21 05:29:52;;;;;;;;;;;;;;;19.73;59.71;100709.53;4972837;28;4180;-74
2023/07/21 05:32:20;;;;;;;;;;;;;;;19.55;60.58;100709.38;4968686;28;3995;-74
2023/07/21 05:34:54;;;;;;;;;;;;;;;19.45;60.26;100712.53;4971072;28;3983;-74
2023/07/21 05:37:21;;;;;;;;;;;;;;;19.48;60.59;100707.63;4969178;28;4276;-73
2023/07/21 05:39:50;;;;;;;;;;;;;;;19.54;60.40;100704.28;4971722;28;4514;-74
2023/07/21 05:42:21;;;;;;;;;;;;;;;19.49;61.29;100700.47;4972928;28;4158;-73
2023/07/21 05:44:48;;;;;;;;;;;;;;;19.40;61.78;100702.25;4988989;28;4246;-74
2023/07/21 05:47:16;;;;;;;;;;;;;;;19.34;61.63;100704.06;4963868;28;4742;-74
2023/07/21 05:49:45;;;;;;;;;;;;;;;19.37;61.50;100700.63;4965717;28;4358;-74
2023/07/21 05:52:11;;;;;;;;;;;;;;;19.40;60.90;100712.97;4978543;28;4385;-74
2023/07/21 05:54:41;;;;;;;;;;;;;;;19.45;61.35;100714.66;4971047;28;4337;-74
2023/07/21 05:57:08;;;;;;;;;;;;;;;19.49;61.32;100697.59;4963945;28;4065;-78
2023/07/21 05:59:41;;;;;;;;;;;;;;;19.70;62.64;100692.84;4982919;28;5229;-75
2023/07/21 06:02:08;;;;;;;;;;;;;;;19.89;62.04;100703.78;4964864;28;4825;-75
2023/07/21 06:04:35;;;;;;;;;;;;;;;20.28;60.91;100711.28;4987937;28;4043;-72
2023/07/21 06:07:21;;;;;;;;;;;;;;;20.36;60.16;100703.00;4983600;28;4952;-73
2023/07/21 06:10:09;;;;;;;;;;;;;;;20.35;59.89;100707.28;5005732;28;3958;-74
2023/07/21 06:12:40;;;;;;;;;;;;;;;20.33;58.95;100712.94;4980894;28;4327;-74
2023/07/21 06:15:29;;;;;;;;;;;;;;;20.40;58.29;100711.06;4972389;28;4049;-73
2023/07/21 06:17:58;;;;;;;;;;;;;;;20.47;58.21;100704.19;5002060;28;4367;-77
2023/07/21 06:20:27;;;;;;;;;;;;;;;20.39;58.91;100701.72;4974153;28;4176;-75
2023/07/21 06:22:54;;;;;;;;;;;;;;;20.37;58.93;100704.50;4975469;28;4184;-77
2023/07/21 06:25:22;;;;;;;;;;;;;;;20.35;58.80;100701.53;5005558;28;3974;-75
2023/07/21 06:27:54;;;;;;;;;;;;;;;20.28;58.59;100702.66;4970679;28;4164;-75
2023/07/21 06:30:22;;;;;;;;;;;;;;;20.22;58.92;100711.00;4968321;28;4129;-75
2023/07/21 06:32:50;;;;;;;;;;;;;;;20.30;59.05;100706.34;4981077;28;4278;-75
2023/07/21 06:35:33;;;;;;;;;;;;;;;20.36;58.69;100705.88;4988881;28;4105;-75
2023/07/21 06:38:23;;;;;;;;;;;;;;;20.34;59.33;100700.06;4970212;28;4202;-77
2023/07/21 06:41:06;;;;;;;;;;;;;;;20.36;58.64;100702.25;4981415;28;4093;-78
2023/07/21 06:44:03;;;;;;;;;;;;;;;20.54;58.36;100702.31;4965119;28;4115;-81
2023/07/21 06:47:01;;;;;;;;;;;;;;;20.59;58.30;100707.63;4963744;28;5176;-81
2023/07/21 06:49:49;;;;;;;;;;;;;;;20.46;58.73;100706.31;4976034;28;5618;-75
2023/07/21 06:52:21;;;;;;;;;;;;;;;20.27;59.20;100713.41;5007038;28;4149;-79
2023/07/21 06:54:47;;;;;;;;;;;;;;;20.32;58.87;100707.81;5007764;28;3972;-80
2023/07/21 06:57:14;;;;;;;;;;;;;;;20.34;58.80;100705.81;4972051;28;4222;-87
2023/07/21 06:59:40;;;;;;;;;;;;;;;20.89;57.66;100705.31;4989013;28;4040;-84
2023/07/21 07:02:08;;;;;;;;;;;;;;;21.07;57.15;100707.44;4971821;28;4212;-77
2023/07/21 07:04:34;;;;;;;;;;;;;;;21.24;56.47;100715.34;4969880;28;4102;-77
2023/07/21 07:07:00;;;;;;;;;;;;;;;21.34;56.11;100703.50;4970727;28;3977;-78
2023/07/21 07:09:27;;;;;;;;;;;;;;;21.45;55.63;100710.44;4970413;28;4221;-77
2023/07/21 07:11:53;;;;;;;;;;;;;;;21.52;55.39;100700.63;5000302;28;4216;-77
2023/07/21 07:14:20;;;;;;;;;;;;;;;21.47;55.25;100707.63;4969029;28;4149;-77
2023/07/21 07:16:46;;;;;;;;;;;;;;;21.47;54.68;100707.63;4969875;28;4227;-79
2023/07/21 07:19:13;;;;;;;;;;;;;;;21.44;54.84;100703.94;4985376;28;5309;-79
2023/07/21 07:21:41;;;;;;;;;;;;;;;21.44;54.70;100697.41;4995739;28;4154;-79
2023/07/21 07:24:10;;;;;;;;;;;;;;;21.50;55.06;100706.31;4979459;28;3999;-77
2023/07/21 07:26:36;;;;;;;;;;;;;;;21.56;54.72;100700.06;4978075;28;4300;-74
2023/07/21 07:29:06;;;;;;;;;;;;;;;21.58;54.75;100694.34;4979311;28;4090;-75
2023/07/21 07:31:32;;;;;;;;;;;;;;;21.65;54.33;100693.19;4975064;28;4234;-74
2023/07/21 07:33:59;;;;;;;;;;;;;;;21.66;54.01;100692.53;4977871;28;3969;-73
2023/07/21 07:36:25;;;;;;;;;;;;;;;21.65;54.20;100705.47;4975960;28;4112;-75
2023/07/21 07:38:52;;;;;;;;;;;;;;;21.85;53.79;100682.44;4973996;28;4185;-78
2023/07/21 07:41:18;;;;;;;;;;;;;;;21.78;53.28;100692.25;4984754;28;4695;-82
2023/07/21 07:43:45;;;;;;;;;;;;;;;21.73;53.76;100687.72;4984331;28;4039;-80
2023/07/21 07:46:11;;;;;;;;;;;;;;;21.71;53.51;100685.50;4974871;28;4833;-81
2023/07/21 07:48:38;;;;;;;;;;;;;;;21.73;53.44;100676.94;4981762;28;4017;-82
2023/07/21 07:51:05;;;;;;;;;;;;;;;21.72;53.44;100678.34;4980943;28;5323;-81
2023/07/21 07:53:31;;;;;;;;;;;;;;;21.73;53.20;100682.69;4999289;28;4037;-78
2023/07/21 07:55:58;;;;;;;;;;;;;;;21.90;53.04;100683.34;4981716;28;4137;-79
2023/07/21 07:58:25;;;;;;;;;;;;;;;21.94;52.83;100680.56;4981750;28;4289;-80
2023/07/21 08:00:54;;;;;;;;;;;;;;;21.96;52.57;100680.66;4986916;28;4144;-80
2023/07/21 08:03:20;;;;;;;;;;;;;;;21.95;52.44;100684.97;4982658;28;4145;-81
2023/07/21 08:05:48;;;;;;;;;;;;;;;21.93;53.56;100690.66;4978279;28;4199;-76
2023/07/21 08:08:14;;;;;;;;;;;;;;;22.00;53.09;100689.47;4984024;28;4117;-77
2023/07/21 08:10:41;;;;;;;;;;;;;;;22.07;52.78;100691.16;4993229;28;4491;-79
2023/07/21 08:13:08;;;;;;;;;;;;;;;21.85;52.33;100687.44;4978629;28;4201;-79
2023/07/21 08:15:34;;;;;;;;;;;;;;;21.41;53.17;100692.97;4966984;28;4874;-78
2023/07/21 08:18:01;;;;;;;;;;;;;;;21.51;52.84;100684.75;4979552;28;4346;-80
2023/07/21 08:20:27;;;;;;;;;;;;;;;21.75;52.83;100682.78;4984356;28;4096;-78
2023/07/21 08:22:54;;;;;;;;;;;;;;;21.80;52.28;100682.94;4978509;28;5031;-77
2023/07/21 08:25:20;;;;;;;;;;;;;;;21.95;52.00;100682.81;4989778;28;4618;-79
2023/07/21 08:27:46;;;;;;;;;;;;;;;21.98;51.99;100689.38;4975498;28;4109;-67
2023/07/21 08:30:15;;;;;;;;;;;;;;;21.99;51.64;100684.34;4970049;28;4120;-66
2023/07/21 08:32:41;;;;;;;;;;;;;;;22.02;51.78;100683.78;4975147;28;4375;-70
2023/07/21 08:35:08;;;;;;;;;;;;;;;21.90;51.91;100681.19;4969588;28;4207;-70
2023/07/21 08:37:35;;;;;;;;;;;;;;;21.81;51.95;100675.78;4969181;28;4244;-70
2023/07/21 08:40:01;;;;;;;;;;;;;;;21.96;51.84;100674.88;4972996;28;4133;-70
2023/07/21 08:42:28;;;;;;;;;;;;;;;21.96;51.98;100689.31;4974381;28;4387;-70
2023/07/21 08:44:54;;;;;;;;;;;;;;;22.11;51.57;100684.81;4974809;28;4130;-71
2023/07/21 08:47:21;;;;;;;;;;;;;;;22.11;51.58;100679.78;4980826;28;4413;-67
2023/07/21 08:49:47;;;;;;;;;;;;;;;22.18;51.46;100681.47;4967397;28;4128;-71
2023/07/21 08:52:14;;;;;;;;;;;;;;;21.96;51.68;100675.63;4965438;28;4122;-70
2023/07/21 08:54:43;;;;;;;;;;;;;;;21.92;51.93;100680.50;4967891;28;4672;-72
2023/07/21 08:57:12;;;;;;;;;;;;;;;21.91;52.19;100681.91;4966207;28;4242;-71
2023/07/21 08:59:38;;;;;;;;;;;;;;;21.91;52.44;100685.53;4968355;28;4207;-70
2023/07/21 09:02:05;;;;;;;;;;;;;;;21.93;52.57;100682.00;4972152;28;4630;-70
2023/07/21 09:04:31;;;;;;;;;;;;;;;21.93;52.71;100687.75;4972859;28;4126;-70
2023/07/21 09:06:59;;;;;;;;;;;;;;;21.91;52.62;100679.75;4967331;28;4027;-71
2023/07/21 09:09:26;;;;;;;;;;;;;;;21.90;52.55;100678.31;4965780;28;3993;-70
2023/07/21 09:12:00;;;;;;;;;;;;;;;21.91;52.66;100676.16;4973527;28;4230;-71
2023/07/21 09:14:36;;;;;;;;;;;;;;;21.90;52.50;100684.06;4970054;28;4131;-70
2023/07/21 09:17:04;;;;;;;;;;;;;;;21.91;52.46;100690.56;4970282;28;4024;-71
2023/07/21 09:19:30;;;;;;;;;;;;;;;21.90;52.68;100674.69;4973551;28;4110;-70
2023/07/21 09:21:56;;;;;;;;;;;;;;;21.89;52.29;100676.06;4977077;28;4115;-70
2023/07/21 09:24:23;;;;;;;;;;;;;;;21.88;52.74;100675.34;4975862;28;4055;-70
2023/07/21 09:26:49;;;;;;;;;;;;;;;21.88;52.53;100675.34;4970931;28;3908;-70
2023/07/21 09:29:17;;;;;;;;;;;;;;;21.88;52.90;100677.50;4968879;28;4112;-71
2023/07/21 09:31:44;;;;;;;;;;;;;;;21.89;52.74;100687.59;4976054;28;4472;-70
2023/07/21 09:34:10;;;;;;;;;;;;;;;21.87;52.62;100681.75;4958163;28;4055;-72
2023/07/21 09:36:42;;;;;;;;;;;;;;;21.91;52.52;100690.56;4966714;28;4176;-71
2023/07/21 09:39:11;;;;;;;;;;;;;;;21.86;52.68;100683.19;4966384;28;4154;-70
2023/07/21 09:41:37;;;;;;;;;;;;;;;21.84;52.67;100680.22;4969956;28;4283;-70
2023/07/21 09:44:05;;;;;;;;;;;;;;;21.88;52.94;100677.50;4964883;28;4121;-70
2023/07/21 09:46:31;;;;;;;;;;;;;;;21.89;54.78;100681.84;4967744;28;4045;-71
2023/07/21 09:48:58;;;;;;;;;;;;;;;21.87;54.29;100668.06;4966446;28;4342;-72
2023/07/21 09:51:26;;;;;;;;;;;;;;;22.07;54.10;100673.13;4966824;28;4210;-71
2023/07/21 09:53:52;;;;;;;;;;;;;;;22.09;54.13;100676.81;4977208;28;4048;-69
2023/07/21 09:56:20;;;;;;;;;;;;;;;21.98;54.30;100666.31;4965510;28;4132;-69
2023/07/21 09:58:53;;;;;;;;;;;;;;;21.98;54.26;100659.81;4963808;28;5097;-68
2023/07/21 10:01:19;;;;;;;;;;;;;;;22.03;53.78;100653.53;4962070;28;4137;-80
2023/07/21 10:03:46;;;;;;;;;;;;;;;21.63;56.94;100653.50;4967459;28;4049;-80
2023/07/21 10:06:15;;;;;;;;;;;;;;;21.51;58.15;100650.19;4979971;28;4171;-79
2023/07/21 10:08:45;;;;;;;;;;;;;;;21.41;59.73;100650.50;4965264;28;4013;-75
2023/07/21 10:11:12;;;;;;;;;;;;;;;21.77;58.90;100643.91;4983465;28;4188;-73
2023/07/21 10:13:42;;;;;;;;;;;;;;;22.03;57.80;100638.38;4966916;28;4168;-72
2023/07/21 10:16:09;;;;;;;;;;;;;;;22.04;56.82;100640.59;4968282;28;4093;-72
2023/07/21 10:18:35;;;;;;;;;;;;;;;22.27;56.68;100644.31;4966081;28;4448;-71
2023/07/21 10:21:03;;;;;;;;;;;;;;;22.41;55.44;100635.41;4968442;28;4171;-73
2023/07/21 10:23:30;;;;;;;;;;;;;;;22.52;54.89;100635.09;4966113;28;4107;-76
2023/07/21 10:26:03;;;;;;;;;;;;;;;22.70;54.24;100619.75;4967128;28;4176;-74
2023/07/21 10:28:30;;;;;;;;;;;;;;;22.73;53.80;100627.09;4971049;28;4116;-71
2023/07/21 10:31:14;;;;;;;;;;;;;;;22.86;53.62;100620.31;4969435;28;4089;-74
2023/07/21 10:33:41;;;;;;;;;;;;;;;22.87;53.34;100618.91;4963402;28;5269;-71
2023/07/21 10:36:14;;;;;;;;;;;;;;;22.79;53.53;100616.50;4966993;28;3911;-72
2023/07/21 10:38:41;;;;;;;;;;;;;;;22.69;53.38;100610.38;4967716;28;4171;-75
2023/07/21 10:41:07;;;;;;;;;;;;;;;22.61;53.81;100603.59;4974825;28;4187;-73
2023/07/21 10:43:33;;;;;;;;;;;;;;;22.48;53.17;100603.19;4968831;28;4044;-71
2023/07/21 10:46:02;;;;;;;;;;;;;;;22.30;53.85;100602.59;4969239;28;4160;-71
2023/07/21 10:48:29;;;;;;;;;;;;;;;22.27;53.95;100598.88;4978666;28;4036;-72
2023/07/21 10:50:57;;;;;;;;;;;;;;;22.48;53.54;100600.31;4958287;28;4129;-76
2023/07/21 10:53:24;;;;;;;;;;;;;;;22.61;53.41;100600.72;4981415;28;4231;-77
2023/07/21 10:55:51;;;;;;;;;;;;;;;22.42;53.44;100600.09;4968697;28;4048;-77
2023/07/21 10:58:17;;;;;;;;;;;;;;;22.58;53.25;100597.75;4961750;28;4145;-78
2023/07/21 11:00:47;;;;;;;;;;;;;;;22.55;53.02;100599.09;4967585;28;4281;-79
2023/07/21 11:03:13;;;;;;;;;;;;;;;22.48;53.24;100597.44;4962912;28;4246;-76
2023/07/21 11:05:40;;;;;;;;;;;;;;;22.41;53.65;100601.53;4965804;28;4061;-78
2023/07/21 11:08:09;;;;;;;;;;;;;;;22.35;53.61;100593.38;4964361;28;3988;-75
2023/07/21 11:10:36;;;;;;;;;;;;;;;22.36;53.29;100594.16;4964300;28;4049;-77
2023/07/21 11:13:05;;;;;;;;;;;;;;;22.56;52.98;100589.06;4969743;28;4214;-80
2023/07/21 11:15:31;;;;;;;;;;;;;;;22.56;52.92;100603.47;4981333;28;4112;-75
2023/07/21 11:18:04;;;;;;;;;;;;;;;22.52;52.87;100594.69;4980799;28;4018;-73
2023/07/21 11:20:31;;;;;;;;;;;;;;;22.50;52.94;100591.72;4966811;28;4041;-74
2023/07/21 11:22:57;;;;;;;;;;;;;;;22.65;53.38;100592.19;4962378;28;4148;-75
2023/07/21 11:25:24;;;;;;;;;;;;;;;22.54;53.04;100580.31;4963840;28;4047;-79
2023/07/21 11:27:50;;;;;;;;;;;;;;;22.39;53.29;100584.13;4961459;28;4200;-76
2023/07/21 11:30:17;;;;;;;;;;;;;;;22.22;53.76;100582.09;4963206;28;4206;-82
2023/07/21 11:32:44;;;;;;;;;;;;;;;22.69;53.22;100572.84;4966043;28;4019;-75
2023/07/21 11:35:11;;;;;;;;;;;;;;;22.82;52.90;100579.03;4978796;28;4123;-77
2023/07/21 11:37:41;;;;;;;;;;;;;;;22.91;52.78;100564.19;4964617;28;4038;-79
2023/07/21 11:40:18;;;;;;;;;;;;;;;22.90;52.46;100565.56;4967019;28;4138;-78
2023/07/21 11:42:45;;;;;;;;;;;;;;;22.93;52.58;100561.34;4966643;28;4168;-79
2023/07/21 11:45:31;;;;;;;;;;;;;;;22.98;52.11;100571.63;4968025;28;4062;-79
2023/07/21 11:47:57;;;;;;;;;;;;;;;22.99;52.31;100564.44;4968738;28;4266;-81
2023/07/21 11:50:24;;;;;;;;;;;;;;;23.07;51.96;100563.97;4965350;28;4095;-80
2023/07/21 11:52:52;;;;;;;;;;;;;;;23.11;52.05;100574.91;4981864;28;4714;-82
2023/07/21 11:55:18;;;;;;;;;;;;;;;23.11;52.09;100572.00;4967402;28;4116;-80
2023/07/21 11:57:45;;;;;;;;;;;;;;;22.74;52.33;100573.72;4963715;28;4174;-70
2023/07/21 12:00:11;;;;;;;;;;;;;;;22.48;53.37;100580.13;4967397;28;4086;-72
2023/07/21 12:02:39;;;;;;;;;;;;;;;22.48;53.91;100594.53;4965408;28;4216;-72
2023/07/21 12:05:05;;;;;;;;;;;;;;;22.43;53.45;100587.16;4967713;28;4199;-72
2023/07/21 12:07:32;;;;;;;;;;;;;;;22.39;53.56;100592.78;4959974;28;4052;-72
2023/07/21 12:10:00;;;;;;;;;;;;;;;22.44;53.27;100588.63;4963532;28;4142;-72
2023/07/21 12:12:27;;;;;;;;;;;;;;;22.39;53.37;100589.91;4968947;28;4065;-68
2023/07/21 12:14:53;;;;;;;;;;;;;;;22.46;53.27;100602.41;4967449;28;4118;-70
2023/07/21 12:17:19;;;;;;;;;;;;;;;22.75;53.27;100583.88;4961248;28;4118;-69
2023/07/21 12:19:48;;;;;;;;;;;;;;;22.88;52.68;100582.84;4967978;28;4079;-69
2023/07/21 12:22:15;;;;;;;;;;;;;;;22.93;52.20;100583.69;4967407;28;4103;-68
2023/07/21 12:24:41;;;;;;;;;;;;;;;23.03;51.97;100586.22;4956530;28;4130;-69
2023/07/21 12:27:07;;;;;;;;;;;;;;;23.19;51.52;100589.59;4967836;28;4132;-69
2023/07/21 12:29:34;;;;;;;;;;;;;;;23.09;51.55;100583.50;4972388;28;4152;-69
2023/07/21 12:32:11;;;;;;;;;;;;;;;23.00;51.92;100580.38;4969725;28;4179;-69
2023/07/21 12:34:38;;;;;;;;;;;;;;;22.99;52.47;100578.88;4969167;28;4042;-75
2023/07/21 12:37:05;;;;;;;;;;;;;;;23.09;52.10;100578.47;4968607;28;4109;-75
2023/07/21 12:39:31;;;;;;;;;;;;;;;23.18;51.74;100577.31;4996189;28;4161;-75
2023/07/21 12:41:58;;;;;;;;;;;;;;;23.19;51.52;100578.03;4967895;28;4112;-69
2023/07/21 12:44:24;;;;;;;;;;;;;;;22.89;52.08;100572.78;4969110;28;4149;-76
2023/07/21 12:46:51;;;;;;;;;;;;;;;22.79;52.52;100569.56;4968789;28;4195;-74
2023/07/21 12:49:17;;;;;;;;;;;;;;;22.66;52.36;100567.72;4969924;28;3942;-73
2023/07/21 12:51:44;;;;;;;;;;;;;;;22.62;52.73;100564.69;4969409;28;4528;-70
2023/07/21 12:54:11;;;;;;;;;;;;;;;22.58;52.58;100554.47;4970794;28;4004;-74